createdAt,value
2018-11-05T00:02:28.283Z,100.00
2018-11-05T00:05:33.732Z,100.00
2018-11-05T00:08:38.096Z,100.00
2018-11-05T00:11:43.312Z,100.00
2018-11-05T00:14:47.685Z,100.00
2018-11-05T00:17:51.991Z,100.00
2018-11-05T00:20:56.579Z,100.00
2018-11-05T00:24:00.847Z,100.00
2018-11-05T00:27:05.120Z,100.00
2018-11-05T00:30:11.596Z,100.00
2018-11-05T00:33:15.927Z,100.00
2018-11-05T00:36:20.304Z,100.00
2018-11-05T00:39:24.726Z,100.00
2018-11-05T00:42:29.189Z,100.00
2018-11-05T00:45:33.628Z,100.00
2018-11-05T00:48:37.948Z,100.00
2018-11-05T00:51:42.695Z,100.00
2018-11-05T00:54:47.099Z,100.00
2018-11-05T00:57:51.572Z,100.00
2018-11-05T01:00:56.213Z,100.00
2018-11-05T01:04:00.502Z,100.00
2018-11-05T01:07:04.848Z,100.00
2018-11-05T01:10:10.451Z,100.00
2018-11-05T01:13:15.751Z,100.00
2018-11-05T01:16:20.080Z,100.00
2018-11-05T01:19:26.280Z,100.00
2018-11-05T01:22:30.837Z,100.00
2018-11-05T01:25:35.557Z,100.00
2018-11-05T01:28:39.862Z,100.00
2018-11-05T01:31:44.449Z,100.00
2018-11-05T01:34:48.855Z,100.00
2018-11-05T01:37:53.346Z,100.00
2018-11-05T01:40:57.660Z,100.00
2018-11-05T01:44:02.283Z,100.00
2018-11-05T01:47:06.815Z,100.00
2018-11-05T01:50:13.384Z,100.00
2018-11-05T01:53:17.740Z,100.00
2018-11-05T01:56:22.124Z,100.00
2018-11-05T01:59:26.672Z,100.00
2018-11-05T02:02:31.244Z,100.00
2018-11-05T02:05:35.763Z,100.00
2018-11-05T02:08:46.608Z,100.00
2018-11-05T02:11:51.049Z,100.00
2018-11-05T02:14:56.102Z,100.00
2018-11-05T02:18:00.464Z,100.00
2018-11-05T02:21:04.985Z,100.00
2018-11-05T02:24:09.843Z,100.00
2018-11-05T02:27:14.315Z,100.00
2018-11-05T02:30:19.557Z,100.00
2018-11-05T02:33:24.334Z,100.00
2018-11-05T02:36:28.881Z,100.00
2018-11-05T02:39:33.199Z,100.00
2018-11-05T02:42:37.578Z,100.00
2018-11-05T02:45:42.092Z,100.00
2018-11-05T02:48:46.489Z,100.00
2018-11-05T02:51:50.992Z,100.00
2018-11-05T02:54:55.442Z,100.00
2018-11-05T02:57:59.817Z,100.00
2018-11-05T03:01:04.339Z,100.00
2018-11-05T03:04:08.641Z,100.00
2018-11-05T03:07:12.961Z,100.00
2018-11-05T03:10:17.440Z,100.00
2018-11-05T03:13:21.772Z,100.00
2018-11-05T03:16:26.198Z,100.00
2018-11-05T03:19:30.495Z,100.00
2018-11-05T03:22:34.808Z,100.00
2018-11-05T03:25:39.316Z,100.00
2018-11-05T03:28:43.638Z,100.00
2018-11-05T03:31:47.944Z,100.00
2018-11-05T03:34:52.572Z,100.00
2018-11-05T03:37:56.899Z,100.00
2018-11-05T03:41:01.231Z,100.00
2018-11-05T03:44:06.141Z,100.00
2018-11-05T03:47:10.507Z,100.00
2018-11-05T03:50:18.945Z,100.00
2018-11-05T03:53:23.272Z,100.00
2018-11-05T03:56:27.629Z,100.00
2018-11-05T03:59:31.996Z,100.00
2018-11-05T04:02:36.399Z,100.00
2018-11-05T04:05:40.705Z,100.00
2018-11-05T04:08:45.184Z,100.00
2018-11-05T04:11:49.549Z,100.00
2018-11-05T04:14:54.215Z,100.00
2018-11-05T04:17:58.589Z,100.00
2018-11-05T04:21:02.968Z,100.00
2018-11-05T04:24:07.519Z,100.00
2018-11-05T04:27:11.919Z,100.00
2018-11-05T04:30:16.673Z,100.00
2018-11-05T04:33:21.181Z,100.00
2018-11-05T04:36:25.505Z,100.00
2018-11-05T04:39:30.568Z,100.00
2018-11-05T04:42:34.892Z,100.00
2018-11-05T04:45:40.852Z,100.00
2018-11-05T04:48:45.401Z,100.00
2018-11-05T04:51:49.865Z,100.00
2018-11-05T04:54:54.968Z,100.00
2018-11-05T04:57:59.265Z,100.00
2018-11-05T05:01:03.686Z,100.00
2018-11-05T05:04:07.987Z,100.00
2018-11-05T05:07:12.844Z,100.00
2018-11-05T05:10:17.264Z,100.00
2018-11-05T05:13:21.796Z,100.00
2018-11-05T05:16:26.473Z,100.00
2018-11-05T05:19:30.938Z,100.00
2018-11-05T05:22:35.397Z,100.00
2018-11-05T05:25:40.548Z,100.00
2018-11-05T05:28:44.959Z,100.00
2018-11-05T05:31:49.641Z,100.00
2018-11-05T05:34:54.364Z,100.00
2018-11-05T05:37:58.831Z,100.00
2018-11-05T05:41:03.462Z,100.00
2018-11-05T05:44:07.659Z,100.00
2018-11-05T05:47:12.051Z,100.00
2018-11-05T05:50:18.236Z,100.00
2018-11-05T05:53:22.575Z,100.00
2018-11-05T05:56:27.048Z,100.00
2018-11-05T05:59:31.463Z,100.00
2018-11-05T06:02:36.249Z,100.00
2018-11-05T06:05:41.039Z,100.00
2018-11-05T06:08:45.646Z,100.00
2018-11-05T06:11:53.319Z,100.00
2018-11-05T06:14:57.620Z,100.00
2018-11-05T06:18:02.249Z,100.00
2018-11-05T06:21:06.880Z,100.00
2018-11-05T06:24:11.216Z,100.00
2018-11-05T06:27:15.564Z,100.00
2018-11-05T06:30:20.964Z,100.00
2018-11-05T06:33:25.548Z,100.00
2018-11-05T06:36:29.932Z,100.00
2018-11-05T06:39:34.405Z,100.00
2018-11-05T06:42:38.756Z,100.00
2018-11-05T06:45:43.114Z,100.00
2018-11-05T06:48:47.507Z,100.00
2018-11-05T06:51:51.915Z,100.00
2018-11-05T06:54:56.701Z,100.00
2018-11-05T06:58:01.140Z,100.00
2018-11-05T07:01:05.991Z,100.00
2018-11-05T07:04:10.320Z,100.00
2018-11-05T07:07:14.739Z,100.00
2018-11-05T07:10:19.861Z,100.00
2018-11-05T07:13:24.326Z,100.00
2018-11-05T07:16:28.816Z,100.00
2018-11-05T07:19:33.584Z,100.00
2018-11-05T07:22:37.879Z,100.00
2018-11-05T07:25:42.412Z,100.00
2018-11-05T07:28:46.805Z,100.00
2018-11-05T07:31:51.128Z,100.00
2018-11-05T07:34:55.578Z,100.00
2018-11-05T07:38:00.108Z,100.00
2018-11-05T07:41:04.471Z,100.00
2018-11-05T07:44:09.341Z,100.00
2018-11-05T07:47:13.673Z,100.00
2018-11-05T07:50:19.001Z,100.00
2018-11-05T07:53:23.669Z,100.00
2018-11-05T07:56:29.141Z,100.00
2018-11-05T07:59:33.800Z,100.00
2018-11-05T08:02:38.182Z,100.00
2018-11-05T08:05:42.509Z,100.00
2018-11-05T08:08:46.856Z,100.00
2018-11-05T08:11:51.172Z,100.00
2018-11-05T08:14:55.549Z,100.00
2018-11-05T08:18:00.667Z,100.00
2018-11-05T08:21:05.597Z,100.00
2018-11-05T08:24:09.918Z,100.00
2018-11-05T08:27:14.340Z,100.00
2018-11-05T08:30:24.737Z,100.00
2018-11-05T08:33:29.126Z,100.00
2018-11-05T08:36:33.499Z,100.00
2018-11-05T08:39:38.056Z,100.00
2018-11-05T08:42:42.913Z,100.00
2018-11-05T08:45:47.348Z,100.00
2018-11-05T08:48:52.672Z,99.81
2018-11-05T08:51:57.252Z,97.36
2018-11-05T08:55:01.742Z,98.02
2018-11-05T08:58:06.356Z,95.50
2018-11-05T09:01:16.828Z,92.96
2018-11-05T09:04:22.257Z,94.76
2018-11-05T09:07:26.686Z,95.41
2018-11-05T09:10:32.706Z,91.54
2018-11-05T09:13:36.808Z,90.82
2018-11-05T09:16:41.393Z,88.30
2018-11-05T09:19:46.224Z,84.86
2018-11-05T09:22:51.378Z,85.46
2018-11-05T09:25:55.691Z,83.72
2018-11-05T09:29:00.062Z,83.50
2018-11-05T09:32:04.384Z,83.72
2018-11-05T09:35:10.142Z,82.39
2018-11-05T09:38:14.458Z,78.37
2018-11-05T09:41:18.869Z,74.87
2018-11-05T09:44:23.248Z,73.83
2018-11-05T09:47:27.884Z,72.09
2018-11-05T09:50:32.283Z,73.23
2018-11-05T09:53:36.812Z,73.20
2018-11-05T09:56:41.403Z,72.87
2018-11-05T09:59:46.873Z,74.59
2018-11-05T10:02:56.425Z,74.98
2018-11-05T10:06:00.665Z,78.00
2018-11-05T10:09:07.945Z,80.66
2018-11-05T10:12:12.485Z,82.64
2018-11-05T10:15:17.996Z,81.15
2018-11-05T10:18:23.878Z,78.34
2018-11-05T10:21:28.212Z,78.83
2018-11-05T10:24:33.706Z,80.97
2018-11-05T10:27:38.028Z,80.81
2018-11-05T10:30:42.643Z,83.00
2018-11-05T10:33:50.644Z,79.79
2018-11-05T10:36:55.202Z,75.88
2018-11-05T10:39:59.571Z,78.56
2018-11-05T10:43:03.993Z,81.51
2018-11-05T10:46:08.658Z,80.22
2018-11-05T10:49:12.969Z,81.83
2018-11-05T10:52:17.648Z,82.47
2018-11-05T10:55:22.033Z,81.34
2018-11-05T10:58:26.411Z,80.90
2018-11-05T11:01:36.399Z,80.49
2018-11-05T11:04:41.663Z,74.89
2018-11-05T11:07:46.376Z,74.85
2018-11-05T11:10:51.393Z,73.53
2018-11-05T11:13:55.927Z,73.74
2018-11-05T11:17:00.397Z,70.78
2018-11-05T11:20:05.358Z,70.46
2018-11-05T11:23:10.092Z,67.66
2018-11-05T11:26:14.411Z,67.32
2018-11-05T11:29:18.905Z,67.68
2018-11-05T11:32:23.019Z,67.06
2018-11-05T11:38:57.519Z,64.97
2018-11-05T11:42:01.847Z,64.77
2018-11-05T11:45:07.053Z,65.56
2018-11-05T11:48:11.355Z,66.63
2018-11-05T11:51:15.664Z,67.09
2018-11-05T11:54:20.108Z,66.02
2018-11-05T11:57:24.424Z,66.08
2018-11-05T12:00:28.722Z,65.92
2018-11-05T12:03:33.161Z,64.81
2018-11-05T12:06:37.438Z,64.07
2018-11-05T12:09:41.774Z,65.17
2018-11-05T12:12:46.176Z,63.16
2018-11-05T12:15:50.610Z,63.27
2018-11-05T12:18:54.963Z,63.83
2018-11-05T12:21:59.395Z,62.61
2018-11-05T12:25:03.808Z,61.95
2018-11-05T12:28:08.017Z,59.97
2018-11-05T12:31:12.426Z,59.49
2018-11-05T12:34:16.726Z,57.05
2018-11-05T12:37:21.055Z,54.35
2018-11-05T12:40:25.440Z,53.68
2018-11-05T12:43:29.834Z,53.72
2018-11-05T12:46:34.199Z,53.28
2018-11-05T12:49:38.496Z,53.23
2018-11-05T12:52:43.838Z,54.38
2018-11-05T12:55:48.259Z,54.92
2018-11-05T12:58:52.578Z,55.14
2018-11-05T13:01:57.795Z,54.92
2018-11-05T13:05:02.145Z,54.66
2018-11-05T13:08:06.598Z,54.06
2018-11-05T13:11:10.977Z,54.54
2018-11-05T13:14:15.281Z,55.75
2018-11-05T13:17:19.768Z,55.21
2018-11-05T13:20:24.585Z,55.75
2018-11-05T13:23:36.425Z,56.38
2018-11-05T13:26:40.817Z,54.14
2018-11-05T13:29:45.186Z,56.39
2018-11-05T13:32:49.572Z,57.39
2018-11-05T13:35:53.964Z,55.31
2018-11-05T13:38:58.419Z,57.23
2018-11-05T13:42:02.800Z,57.03
2018-11-05T13:45:09.152Z,57.84
2018-11-05T13:48:13.516Z,58.46
2018-11-05T13:51:17.559Z,59.02
2018-11-05T13:54:22.038Z,59.25
2018-11-05T13:57:26.218Z,59.11
2018-11-05T14:00:30.525Z,58.23
2018-11-05T14:03:34.833Z,57.07
2018-11-05T14:06:39.279Z,58.29
2018-11-05T14:09:43.584Z,58.36
2018-11-05T14:12:48.315Z,57.08
2018-11-05T14:15:52.673Z,57.33
2018-11-05T14:18:57.695Z,58.04
2018-11-05T14:22:02.366Z,57.44
2018-11-05T14:25:09.333Z,55.93
2018-11-05T14:28:13.976Z,56.80
2018-11-05T14:31:18.100Z,56.91
2018-11-05T14:34:22.391Z,56.61
2018-11-05T14:37:26.771Z,57.50
2018-11-05T14:40:37.854Z,57.22
2018-11-05T14:43:42.320Z,58.02
2018-11-05T14:46:46.524Z,59.24
2018-11-05T14:49:50.828Z,58.79
2018-11-05T14:52:55.264Z,60.70
2018-11-05T14:56:00.556Z,61.46
2018-11-05T14:59:05.305Z,62.60
2018-11-05T15:02:15.297Z,64.21
2018-11-05T15:05:20.340Z,65.66
2018-11-05T15:08:24.719Z,65.85
2018-11-05T15:11:29.004Z,65.07
2018-11-05T15:14:33.295Z,65.07
2018-11-05T15:17:37.834Z,65.44
2018-11-05T15:20:42.247Z,64.71
2018-11-05T15:23:46.520Z,64.41
2018-11-05T15:26:51.665Z,66.41
2018-11-05T15:29:56.248Z,64.95
2018-11-05T15:33:00.628Z,63.98
2018-11-05T15:36:06.321Z,64.15
2018-11-05T15:39:10.855Z,66.25
2018-11-05T15:42:15.317Z,66.52
2018-11-05T15:45:20.779Z,67.63
2018-11-05T15:48:25.176Z,69.70
2018-11-05T15:51:29.764Z,72.47
2018-11-05T15:54:34.134Z,76.57
2018-11-05T15:57:39.103Z,79.59
2018-11-05T16:00:43.488Z,82.59
2018-11-05T16:03:47.820Z,80.87
2018-11-05T16:06:52.161Z,80.39
2018-11-05T16:09:56.604Z,76.62
2018-11-05T16:13:01.003Z,74.19
2018-11-05T16:16:05.556Z,72.14
2018-11-05T16:19:09.869Z,70.16
2018-11-05T16:22:14.241Z,71.43
2018-11-05T16:25:18.580Z,71.35
2018-11-05T16:28:22.987Z,74.06
2018-11-05T16:31:27.538Z,74.79
2018-11-05T16:34:32.041Z,76.00
2018-11-05T16:37:36.616Z,76.24
2018-11-05T16:40:41.037Z,76.50
2018-11-05T16:43:45.797Z,77.77
2018-11-05T16:46:50.202Z,79.39
2018-11-05T16:49:54.710Z,79.31
2018-11-05T16:52:59.091Z,75.51
2018-11-05T16:56:03.408Z,74.22
2018-11-05T16:59:07.983Z,74.17
2018-11-05T17:02:15.034Z,73.90
2018-11-05T17:05:19.014Z,75.88
2018-11-05T17:08:23.813Z,73.12
2018-11-05T17:11:28.245Z,71.97
2018-11-05T17:14:32.784Z,70.56
2018-11-05T17:17:37.688Z,70.91
2018-11-05T17:20:42.078Z,72.23
2018-11-05T17:23:46.573Z,70.98
2018-11-05T17:26:51.072Z,70.13
2018-11-05T17:29:55.624Z,70.93
2018-11-05T17:33:00.015Z,69.67
2018-11-05T17:36:04.383Z,68.85
2018-11-05T17:39:11.644Z,69.16
2018-11-05T17:42:16.077Z,67.74
2018-11-05T17:45:20.961Z,69.69
2018-11-05T17:48:25.342Z,72.92
2018-11-05T17:51:29.787Z,71.85
2018-11-05T17:54:34.180Z,72.65
2018-11-05T17:57:38.628Z,71.72
2018-11-05T18:00:43.065Z,70.96
2018-11-05T18:03:47.438Z,71.28
2018-11-05T18:06:51.732Z,74.96
2018-11-05T18:09:56.012Z,76.07
2018-11-05T18:13:00.319Z,78.48
2018-11-05T18:16:04.806Z,80.46
2018-11-05T18:19:09.233Z,82.28
2018-11-05T18:22:13.432Z,83.93
2018-11-05T18:25:18.905Z,84.47
2018-11-05T18:28:23.208Z,85.08
2018-11-05T18:31:27.818Z,84.39
2018-11-05T18:34:32.204Z,84.39
2018-11-05T18:37:36.719Z,83.99
2018-11-05T18:40:41.165Z,84.45
2018-11-05T18:43:45.616Z,84.62
2018-11-05T18:46:50.000Z,84.15
2018-11-05T18:49:54.426Z,84.16
2018-11-05T18:52:58.706Z,85.72
2018-11-05T18:56:03.154Z,85.10
2018-11-05T18:59:07.866Z,85.69
2018-11-05T19:02:16.387Z,85.50
2018-11-05T19:05:21.568Z,85.97
2018-11-05T19:08:25.941Z,86.01
2018-11-05T19:11:30.264Z,85.38
2018-11-05T19:14:34.604Z,85.59
2018-11-05T19:17:38.924Z,86.35
2018-11-05T19:20:43.259Z,85.29
2018-11-05T19:24:18.835Z,83.59
2018-11-05T19:27:23.137Z,83.79
2018-11-05T19:30:28.244Z,83.28
2018-11-05T19:33:32.793Z,82.43
2018-11-05T19:36:37.149Z,82.08
2018-11-05T19:39:41.546Z,80.73
2018-11-05T19:42:46.628Z,79.42
2018-11-05T19:45:50.835Z,78.91
2018-11-05T19:48:55.212Z,78.15
2018-11-05T19:51:59.560Z,77.67
2018-11-05T19:55:03.950Z,77.55
2018-11-05T19:58:08.431Z,76.09
2018-11-05T20:01:12.857Z,76.31
2018-11-05T20:04:17.200Z,75.29
2018-11-05T20:07:21.589Z,74.31
2018-11-05T20:10:26.340Z,74.10
2018-11-05T20:13:30.784Z,74.59
2018-11-05T20:16:35.383Z,73.90
2018-11-05T20:19:39.740Z,74.19
2018-11-05T20:22:44.277Z,74.17
2018-11-05T20:25:48.655Z,74.49
2018-11-05T20:28:53.041Z,74.11
2018-11-05T20:31:57.527Z,74.01
2018-11-05T20:35:01.598Z,73.11
2018-11-05T20:38:06.237Z,73.68
2018-11-05T20:41:10.772Z,73.77
2018-11-05T20:44:15.210Z,74.38
2018-11-05T20:47:19.616Z,75.44
2018-11-05T20:50:24.024Z,75.75
2018-11-05T20:53:28.491Z,76.94
2018-11-05T20:56:32.780Z,77.92
2018-11-05T20:59:37.409Z,78.12
2018-11-05T21:02:42.557Z,78.21
2018-11-05T21:05:46.970Z,79.53
2018-11-05T21:08:51.431Z,81.01
2018-11-05T21:11:56.016Z,81.65
2018-11-05T21:15:00.368Z,82.24
2018-11-05T21:18:05.090Z,83.01
2018-11-05T21:21:10.638Z,82.93
2018-11-05T21:24:15.034Z,83.49
2018-11-05T21:27:19.359Z,83.21
2018-11-05T21:30:24.088Z,84.03
2018-11-05T21:33:28.839Z,81.30
2018-11-05T21:36:33.247Z,81.98
2018-11-05T21:39:37.542Z,84.95
2018-11-05T21:42:42.122Z,86.65
2018-11-05T21:45:46.472Z,87.74
2018-11-05T21:48:50.740Z,89.05
2018-11-05T21:51:55.281Z,89.20
2018-11-05T21:54:59.678Z,89.37
2018-11-05T21:58:04.008Z,89.81
2018-11-05T22:01:08.312Z,90.53
2018-11-05T22:04:12.635Z,91.28
2018-11-05T22:07:17.194Z,91.20
2018-11-05T22:10:21.531Z,91.58
2018-11-05T22:13:26.274Z,91.97
2018-11-05T22:16:30.670Z,91.65
2018-11-05T22:19:34.973Z,91.38
2018-11-05T22:22:39.628Z,91.20
2018-11-05T22:25:43.918Z,91.35
2018-11-05T22:28:48.232Z,90.86
2018-11-05T22:31:52.542Z,90.30
2018-11-05T22:34:57.028Z,88.28
2018-11-05T22:38:01.379Z,87.39
2018-11-05T22:41:06.191Z,89.02
2018-11-05T22:44:10.472Z,89.65
2018-11-05T22:47:14.827Z,90.58
2018-11-05T22:50:19.113Z,91.20
2018-11-05T22:53:23.565Z,89.30
2018-11-05T22:56:27.844Z,90.26
2018-11-05T22:59:32.140Z,90.03
2018-11-05T23:02:36.449Z,89.93
2018-11-05T23:05:40.971Z,91.28
2018-11-05T23:08:45.308Z,90.90
2018-11-05T23:11:49.701Z,91.64
2018-11-05T23:14:54.040Z,91.43
2018-11-05T23:17:58.364Z,91.50
2018-11-05T23:21:02.669Z,91.28
2018-11-05T23:24:07.008Z,90.90
2018-11-05T23:27:11.306Z,90.02
2018-11-05T23:30:15.608Z,89.92
2018-11-05T23:33:19.955Z,90.75
2018-11-05T23:36:24.209Z,91.55
2018-11-05T23:39:28.762Z,91.81
2018-11-05T23:42:33.157Z,91.81
2018-11-05T23:45:37.437Z,92.41
2018-11-05T23:48:41.772Z,92.01
2018-11-05T23:51:46.125Z,92.77
2018-11-05T23:54:50.388Z,93.23
2018-11-05T23:57:54.701Z,93.41
